If you wish to contribute or participate in the discussions about articles you are invited to join SKYbrary as a registered user

 Actions

Kunsan Air Base

From SKYbrary Wiki

RKJK /
Revision as of 21:42, 25 June 2020 by Admin (talk | contribs) (Text replacement - "===test===" to "")
(diff) ← Older revision | Latest revision (diff) | Newer revision → (diff)
Airport
ICAO: RKJK – IATA: KUV
Summary
Name Kunsan Air Base
Region
Territory South Korea KR.gif
Location , Cholla-bukto
Serving Kunsan
Elevation 8.839 m
29 ft
29 ft8.839 m
Type large airport
Coordinates 35° 54' 13.52" N, 126° 36' 57.26" E
Runways
Designator Length Width Surface ROPS
18/36 2743 m8,999.344 ft
46 m150.919 ft
CON yes/yes


METAR
Observation RKJK 272056Z 11004KT 1SM BR CLR 12/11 A3018 RMK SLP224 T01190110 55002 $
Station Kunsan Ab
Date/Time 27 October 2020 20:56:00
Wind direction 110°
Wind speed 04 kts
Lowest cloud amount n/a
Temperature 11.9°C
Dew point 11°C
Humidity 94%
QNH hPa
Weather condition mist